sensor_id;sensor_type;location;lat;lon;timestamp;temperature;humidity
3792;DHT22;1911;53.768;11.474;2023-10-19T00:00:46;6.80;99.90
3792;DHT22;1911;53.768;11.474;2023-10-19T00:03:14;6.80;99.90
3792;DHT22;1911;53.768;11.474;2023-10-19T00:05:40;6.80;99.90
3792;DHT22;1911;53.768;11.474;2023-10-19T00:08:10;6.80;99.90
3792;DHT22;1911;53.768;11.474;2023-10-19T00:10:51;6.80;99.90
3792;DHT22;1911;53.768;11.474;2023-10-19T00:13:33;6.80;99.90
3792;DHT22;1911;53.768;11.474;2023-10-19T00:16:01;6.80;99.90
3792;DHT22;1911;53.768;11.474;2023-10-19T00:18:32;6.80;99.90
3792;DHT22;1911;53.768;11.474;2023-10-19T00:21:00;6.90;99.90
3792;DHT22;1911;53.768;11.474;2023-10-19T00:23:37;6.90;99.90
3792;DHT22;1911;53.768;11.474;2023-10-19T00:26:05;6.90;99.90
3792;DHT22;1911;53.768;11.474;2023-10-19T00:28:38;6.90;99.90
3792;DHT22;1911;53.768;11.474;2023-10-19T00:31:04;6.80;99.90
3792;DHT22;1911;53.768;11.474;2023-10-19T00:33:34;6.90;99.90
3792;DHT22;1911;53.768;11.474;2023-10-19T00:36:04;6.80;99.90
3792;DHT22;1911;53.768;11.474;2023-10-19T00:38:39;6.90;99.90
3792;DHT22;1911;53.768;11.474;2023-10-19T00:41:13;6.90;99.90
3792;DHT22;1911;53.768;11.474;2023-10-19T00:43:42;6.90;99.90
3792;DHT22;1911;53.768;11.474;2023-10-19T00:46:18;6.90;99.90
3792;DHT22;1911;53.768;11.474;2023-10-19T00:48:57;6.90;99.90
3792;DHT22;1911;53.768;11.474;2023-10-19T00:51:31;6.90;99.90
3792;DHT22;1911;53.768;11.474;2023-10-19T00:54:06;6.90;99.90
3792;DHT22;1911;53.768;11.474;2023-10-19T00:56:46;7.00;99.90
3792;DHT22;1911;53.768;11.474;2023-10-19T00:59:19;6.90;99.90
3792;DHT22;1911;53.768;11.474;2023-10-19T01:01:55;7.00;99.90
3792;DHT22;1911;53.768;11.474;2023-10-19T01:04:41;7.00;99.90
3792;DHT22;1911;53.768;11.474;2023-10-19T01:07:11;7.00;99.90
3792;DHT22;1911;53.768;11.474;2023-10-19T01:09:44;7.00;99.90
3792;DHT22;1911;53.768;11.474;2023-10-19T01:12:10;7.00;99.90
3792;DHT22;1911;53.768;11.474;2023-10-19T01:17:48;7.10;99.90
3792;DHT22;1911;53.768;11.474;2023-10-19T01:20:17;7.00;99.90
3792;DHT22;1911;53.768;11.474;2023-10-19T01:22:54;7.00;99.90
3792;DHT22;1911;53.768;11.474;2023-10-19T01:28:38;7.00;99.90
3792;DHT22;1911;53.768;11.474;2023-10-19T01:31:07;7.00;99.90
3792;DHT22;1911;53.768;11.474;2023-10-19T01:33:33;7.00;99.90
3792;DHT22;1911;53.768;11.474;2023-10-19T01:36:00;7.00;99.90
3792;DHT22;1911;53.768;11.474;2023-10-19T01:39:01;7.00;99.90
3792;DHT22;1911;53.768;11.474;2023-10-19T01:41:28;7.00;99.90
3792;DHT22;1911;53.768;11.474;2023-10-19T01:43:56;7.00;99.90
3792;DHT22;1911;53.768;11.474;2023-10-19T01:46:29;7.00;99.90
3792;DHT22;1911;53.768;11.474;2023-10-19T01:48:59;7.00;99.90
3792;DHT22;1911;53.768;11.474;2023-10-19T01:51:29;7.00;99.90
3792;DHT22;1911;53.768;11.474;2023-10-19T01:53:56;7.00;99.90
3792;DHT22;1911;53.768;11.474;2023-10-19T01:56:22;7.00;99.90
3792;DHT22;1911;53.768;11.474;2023-10-19T01:58:49;7.00;99.90
3792;DHT22;1911;53.768;11.474;2023-10-19T02:01:17;7.00;99.90
3792;DHT22;1911;53.768;11.474;2023-10-19T02:03:47;7.00;99.90
3792;DHT22;1911;53.768;11.474;2023-10-19T02:06:15;7.10;99.90
3792;DHT22;1911;53.768;11.474;2023-10-19T02:08:46;7.00;99.90
3792;DHT22;1911;53.768;11.474;2023-10-19T02:11:15;7.10;99.90
3792;DHT22;1911;53.768;11.474;2023-10-19T02:13:47;7.10;99.90
3792;DHT22;1911;53.768;11.474;2023-10-19T02:16:14;7.10;99.90
3792;DHT22;1911;53.768;11.474;2023-10-19T02:18:42;7.10;99.90
3792;DHT22;1911;53.768;11.474;2023-10-19T02:21:09;7.10;99.90
3792;DHT22;1911;53.768;11.474;2023-10-19T02:23:38;7.10;99.90
3792;DHT22;1911;53.768;11.474;2023-10-19T02:26:03;7.10;99.90
3792;DHT22;1911;53.768;11.474;2023-10-19T02:28:30;7.10;99.90
3792;DHT22;1911;53.768;11.474;2023-10-19T02:30:58;7.10;99.90
3792;DHT22;1911;53.768;11.474;2023-10-19T02:33:36;7.10;99.90
3792;DHT22;1911;53.768;11.474;2023-10-19T02:36:02;7.20;99.90
3792;DHT22;1911;53.768;11.474;2023-10-19T02:38:29;7.20;99.90
3792;DHT22;1911;53.768;11.474;2023-10-19T02:40:55;7.20;99.90
3792;DHT22;1911;53.768;11.474;2023-10-19T02:43:21;7.20;99.90
3792;DHT22;1911;53.768;11.474;2023-10-19T02:45:49;7.20;99.90
3792;DHT22;1911;53.768;11.474;2023-10-19T02:48:15;7.20;99.90
3792;DHT22;1911;53.768;11.474;2023-10-19T02:50:41;7.20;99.90
3792;DHT22;1911;53.768;11.474;2023-10-19T02:53:07;7.20;99.90
3792;DHT22;1911;53.768;11.474;2023-10-19T02:55:32;7.30;99.90
3792;DHT22;1911;53.768;11.474;2023-10-19T02:57:58;7.30;99.90
3792;DHT22;1911;53.768;11.474;2023-10-19T03:00:24;7.30;99.90
3792;DHT22;1911;53.768;11.474;2023-10-19T03:02:59;7.30;99.90
3792;DHT22;1911;53.768;11.474;2023-10-19T03:05:26;7.30;99.90
3792;DHT22;1911;53.768;11.474;2023-10-19T03:07:51;7.30;99.90
3792;DHT22;1911;53.768;11.474;2023-10-19T03:10:18;7.40;99.90
3792;DHT22;1911;53.768;11.474;2023-10-19T03:12:51;7.40;99.90
3792;DHT22;1911;53.768;11.474;2023-10-19T03:15:18;7.40;99.90
3792;DHT22;1911;53.768;11.474;2023-10-19T03:17:46;7.40;99.90
3792;DHT22;1911;53.768;11.474;2023-10-19T03:20:12;7.40;99.90
3792;DHT22;1911;53.768;11.474;2023-10-19T03:22:38;7.40;99.90
3792;DHT22;1911;53.768;11.474;2023-10-19T03:25:07;7.40;99.90
3792;DHT22;1911;53.768;11.474;2023-10-19T03:27:51;7.50;99.90
3792;DHT22;1911;53.768;11.474;2023-10-19T03:30:18;7.50;99.90
3792;DHT22;1911;53.768;11.474;2023-10-19T03:32:44;7.60;99.90
3792;DHT22;1911;53.768;11.474;2023-10-19T03:35:10;7.50;99.90
3792;DHT22;1911;53.768;11.474;2023-10-19T03:37:40;7.60;99.90
3792;DHT22;1911;53.768;11.474;2023-10-19T03:40:07;7.50;99.90
3792;DHT22;1911;53.768;11.474;2023-10-19T03:42:35;7.60;99.90
3792;DHT22;1911;53.768;11.474;2023-10-19T03:45:07;7.60;99.90
3792;DHT22;1911;53.768;11.474;2023-10-19T03:47:39;7.60;99.90
3792;DHT22;1911;53.768;11.474;2023-10-19T03:50:05;7.60;99.90
3792;DHT22;1911;53.768;11.474;2023-10-19T03:52:34;7.60;99.90
3792;DHT22;1911;53.768;11.474;2023-10-19T03:55:03;7.60;99.90
3792;DHT22;1911;53.768;11.474;2023-10-19T03:57:31;7.60;99.90
3792;DHT22;1911;53.768;11.474;2023-10-19T03:59:56;7.70;99.90
3792;DHT22;1911;53.768;11.474;2023-10-19T04:02:22;7.70;99.90
3792;DHT22;1911;53.768;11.474;2023-10-19T04:04:54;7.70;99.90
3792;DHT22;1911;53.768;11.474;2023-10-19T04:07:22;7.60;99.90
3792;DHT22;1911;53.768;11.474;2023-10-19T04:09:53;7.60;99.90
3792;DHT22;1911;53.768;11.474;2023-10-19T04:12:31;7.60;99.90
3792;DHT22;1911;53.768;11.474;2023-10-19T04:14:58;7.60;99.90
3792;DHT22;1911;53.768;11.474;2023-10-19T04:17:34;7.60;99.90
3792;DHT22;1911;53.768;11.474;2023-10-19T04:20:02;7.60;99.90
3792;DHT22;1911;53.768;11.474;2023-10-19T04:22:38;7.60;99.90
3792;DHT22;1911;53.768;11.474;2023-10-19T04:25:04;7.60;99.90
3792;DHT22;1911;53.768;11.474;2023-10-19T04:27:31;7.60;99.90
3792;DHT22;1911;53.768;11.474;2023-10-19T04:30:01;7.60;99.90
3792;DHT22;1911;53.768;11.474;2023-10-19T04:32:27;7.60;99.90
3792;DHT22;1911;53.768;11.474;2023-10-19T04:34:53;7.60;99.90
3792;DHT22;1911;53.768;11.474;2023-10-19T04:37:19;7.60;99.90
3792;DHT22;1911;53.768;11.474;2023-10-19T04:39:46;7.60;99.90
3792;DHT22;1911;53.768;11.474;2023-10-19T04:42:11;7.60;99.90
3792;DHT22;1911;53.768;11.474;2023-10-19T04:44:37;7.60;99.90
3792;DHT22;1911;53.768;11.474;2023-10-19T04:47:03;7.60;99.90
3792;DHT22;1911;53.768;11.474;2023-10-19T04:49:30;7.60;99.90
3792;DHT22;1911;53.768;11.474;2023-10-19T04:51:55;7.60;99.90
3792;DHT22;1911;53.768;11.474;2023-10-19T04:54:21;7.60;99.90
3792;DHT22;1911;53.768;11.474;2023-10-19T04:56:47;7.60;99.90
3792;DHT22;1911;53.768;11.474;2023-10-19T04:59:13;7.60;99.90
3792;DHT22;1911;53.768;11.474;2023-10-19T05:01:39;7.60;99.90
3792;DHT22;1911;53.768;11.474;2023-10-19T05:04:13;7.50;99.90
3792;DHT22;1911;53.768;11.474;2023-10-19T05:06:39;7.60;99.90
3792;DHT22;1911;53.768;11.474;2023-10-19T05:09:04;7.60;99.90
3792;DHT22;1911;53.768;11.474;2023-10-19T05:11:33;7.60;99.90
3792;DHT22;1911;53.768;11.474;2023-10-19T05:13:58;7.60;99.90
3792;DHT22;1911;53.768;11.474;2023-10-19T05:16:24;7.50;99.90
3792;DHT22;1911;53.768;11.474;2023-10-19T05:18:49;7.50;99.90
3792;DHT22;1911;53.768;11.474;2023-10-19T05:21:15;7.50;99.90
3792;DHT22;1911;53.768;11.474;2023-10-19T05:23:40;7.50;99.90
3792;DHT22;1911;53.768;11.474;2023-10-19T05:26:06;7.60;99.90
3792;DHT22;1911;53.768;11.474;2023-10-19T05:28:32;7.60;99.90
3792;DHT22;1911;53.768;11.474;2023-10-19T05:30:57;7.60;99.90
3792;DHT22;1911;53.768;11.474;2023-10-19T05:33:24;7.60;99.90
3792;DHT22;1911;53.768;11.474;2023-10-19T05:35:51;7.60;99.90
3792;DHT22;1911;53.768;11.474;2023-10-19T05:38:17;7.60;99.90
3792;DHT22;1911;53.768;11.474;2023-10-19T05:40:45;7.60;99.90
3792;DHT22;1911;53.768;11.474;2023-10-19T05:43:11;7.60;99.90
3792;DHT22;1911;53.768;11.474;2023-10-19T05:45:39;7.60;99.90
3792;DHT22;1911;53.768;11.474;2023-10-19T05:48:05;7.60;99.90
3792;DHT22;1911;53.768;11.474;2023-10-19T05:50:35;7.70;99.90
3792;DHT22;1911;53.768;11.474;2023-10-19T05:53:01;7.70;99.90
3792;DHT22;1911;53.768;11.474;2023-10-19T05:55:27;7.60;99.90
3792;DHT22;1911;53.768;11.474;2023-10-19T05:57:54;7.60;99.90
3792;DHT22;1911;53.768;11.474;2023-10-19T06:00:21;7.60;99.90
3792;DHT22;1911;53.768;11.474;2023-10-19T06:02:50;7.70;99.90
3792;DHT22;1911;53.768;11.474;2023-10-19T06:05:16;7.60;99.90
3792;DHT22;1911;53.768;11.474;2023-10-19T06:07:43;7.60;99.90
3792;DHT22;1911;53.768;11.474;2023-10-19T06:10:14;7.70;99.90
3792;DHT22;1911;53.768;11.474;2023-10-19T06:12:43;7.60;99.90
3792;DHT22;1911;53.768;11.474;2023-10-19T06:15:10;7.60;99.90
3792;DHT22;1911;53.768;11.474;2023-10-19T06:17:37;7.70;99.90
3792;DHT22;1911;53.768;11.474;2023-10-19T06:20:05;7.60;99.90
3792;DHT22;1911;53.768;11.474;2023-10-19T06:22:33;7.70;99.90
3792;DHT22;1911;53.768;11.474;2023-10-19T06:24:59;7.60;99.90
3792;DHT22;1911;53.768;11.474;2023-10-19T06:27:24;7.60;99.90
3792;DHT22;1911;53.768;11.474;2023-10-19T06:29:50;7.60;99.90
3792;DHT22;1911;53.768;11.474;2023-10-19T06:32:15;7.60;99.90
3792;DHT22;1911;53.768;11.474;2023-10-19T06:34:43;7.60;99.90
3792;DHT22;1911;53.768;11.474;2023-10-19T06:37:09;7.60;99.90
3792;DHT22;1911;53.768;11.474;2023-10-19T06:39:36;7.60;99.90
3792;DHT22;1911;53.768;11.474;2023-10-19T06:42:08;7.60;99.90
3792;DHT22;1911;53.768;11.474;2023-10-19T06:44:43;7.60;99.90
3792;DHT22;1911;53.768;11.474;2023-10-19T06:47:09;7.60;99.90
3792;DHT22;1911;53.768;11.474;2023-10-19T06:49:35;7.60;99.90
3792;DHT22;1911;53.768;11.474;2023-10-19T06:52:01;7.60;99.90
3792;DHT22;1911;53.768;11.474;2023-10-19T06:54:30;7.60;99.90
3792;DHT22;1911;53.768;11.474;2023-10-19T06:56:56;7.60;99.90
3792;DHT22;1911;53.768;11.474;2023-10-19T06:59:21;7.60;99.90
3792;DHT22;1911;53.768;11.474;2023-10-19T07:01:47;7.60;99.90
3792;DHT22;1911;53.768;11.474;2023-10-19T07:04:12;7.60;99.90
3792;DHT22;1911;53.768;11.474;2023-10-19T07:06:38;7.60;99.90
3792;DHT22;1911;53.768;11.474;2023-10-19T07:09:04;7.60;99.90
3792;DHT22;1911;53.768;11.474;2023-10-19T07:11:31;7.60;99.90
3792;DHT22;1911;53.768;11.474;2023-10-19T07:13:59;7.60;99.90
3792;DHT22;1911;53.768;11.474;2023-10-19T07:16:25;7.60;99.90
3792;DHT22;1911;53.768;11.474;2023-10-19T07:18:52;7.60;99.90
3792;DHT22;1911;53.768;11.474;2023-10-19T07:21:19;7.60;99.90
3792;DHT22;1911;53.768;11.474;2023-10-19T07:23:46;7.60;99.90
3792;DHT22;1911;53.768;11.474;2023-10-19T07:26:14;7.60;99.90
3792;DHT22;1911;53.768;11.474;2023-10-19T07:28:40;7.60;99.90
3792;DHT22;1911;53.768;11.474;2023-10-19T07:31:06;7.60;99.90
3792;DHT22;1911;53.768;11.474;2023-10-19T07:33:40;7.50;99.90
3792;DHT22;1911;53.768;11.474;2023-10-19T07:36:14;7.50;99.90
3792;DHT22;1911;53.768;11.474;2023-10-19T07:38:40;7.60;99.90
3792;DHT22;1911;53.768;11.474;2023-10-19T07:41:07;7.60;99.90
3792;DHT22;1911;53.768;11.474;2023-10-19T07:43:35;7.60;99.90
3792;DHT22;1911;53.768;11.474;2023-10-19T07:46:00;7.60;99.90
3792;DHT22;1911;53.768;11.474;2023-10-19T07:48:26;7.60;99.90
3792;DHT22;1911;53.768;11.474;2023-10-19T07:50:52;7.60;99.90
3792;DHT22;1911;53.768;11.474;2023-10-19T07:53:19;7.60;99.90
3792;DHT22;1911;53.768;11.474;2023-10-19T07:55:44;7.60;99.90
3792;DHT22;1911;53.768;11.474;2023-10-19T07:58:10;7.70;99.90
3792;DHT22;1911;53.768;11.474;2023-10-19T08:00:36;7.70;99.90
3792;DHT22;1911;53.768;11.474;2023-10-19T08:03:03;7.80;99.90
3792;DHT22;1911;53.768;11.474;2023-10-19T08:05:29;7.80;99.90
3792;DHT22;1911;53.768;11.474;2023-10-19T08:07:55;7.80;99.90
3792;DHT22;1911;53.768;11.474;2023-10-19T08:10:22;7.80;99.90
3792;DHT22;1911;53.768;11.474;2023-10-19T08:12:48;7.90;99.90
3792;DHT22;1911;53.768;11.474;2023-10-19T08:15:16;7.90;99.90
3792;DHT22;1911;53.768;11.474;2023-10-19T08:17:45;7.90;99.90
3792;DHT22;1911;53.768;11.474;2023-10-19T08:20:12;7.90;99.90
3792;DHT22;1911;53.768;11.474;2023-10-19T08:22:57;7.90;99.90
3792;DHT22;1911;53.768;11.474;2023-10-19T08:25:23;7.90;99.90
3792;DHT22;1911;53.768;11.474;2023-10-19T08:27:49;7.90;99.90
3792;DHT22;1911;53.768;11.474;2023-10-19T08:30:19;7.90;99.90
3792;DHT22;1911;53.768;11.474;2023-10-19T08:32:46;7.90;99.90
3792;DHT22;1911;53.768;11.474;2023-10-19T08:35:16;7.90;99.90
3792;DHT22;1911;53.768;11.474;2023-10-19T08:37:46;7.90;99.90
3792;DHT22;1911;53.768;11.474;2023-10-19T08:40:12;7.90;99.90
3792;DHT22;1911;53.768;11.474;2023-10-19T08:42:43;7.90;99.90
3792;DHT22;1911;53.768;11.474;2023-10-19T08:45:09;8.00;99.90
3792;DHT22;1911;53.768;11.474;2023-10-19T08:47:59;8.00;99.90
3792;DHT22;1911;53.768;11.474;2023-10-19T08:50:31;8.00;99.90
3792;DHT22;1911;53.768;11.474;2023-10-19T08:53:02;8.00;99.90
3792;DHT22;1911;53.768;11.474;2023-10-19T08:55:29;8.00;99.90
3792;DHT22;1911;53.768;11.474;2023-10-19T08:57:56;8.10;99.90
3792;DHT22;1911;53.768;11.474;2023-10-19T09:00:25;8.20;99.90
3792;DHT22;1911;53.768;11.474;2023-10-19T09:02:53;8.30;99.90
3792;DHT22;1911;53.768;11.474;2023-10-19T09:05:19;8.30;99.90
3792;DHT22;1911;53.768;11.474;2023-10-19T09:07:52;8.30;99.90
3792;DHT22;1911;53.768;11.474;2023-10-19T09:13:08;8.40;99.90
3792;DHT22;1911;53.768;11.474;2023-10-19T09:15:35;8.40;99.90
3792;DHT22;1911;53.768;11.474;2023-10-19T09:18:21;8.40;99.90
3792;DHT22;1911;53.768;11.474;2023-10-19T09:20:52;8.40;99.90
3792;DHT22;1911;53.768;11.474;2023-10-19T09:23:27;8.40;99.90
3792;DHT22;1911;53.768;11.474;2023-10-19T09:25:56;8.40;99.90
3792;DHT22;1911;53.768;11.474;2023-10-19T09:28:23;8.50;99.90
3792;DHT22;1911;53.768;11.474;2023-10-19T09:30:50;8.50;99.90
3792;DHT22;1911;53.768;11.474;2023-10-19T09:33:19;8.50;99.90
3792;DHT22;1911;53.768;11.474;2023-10-19T09:35:48;8.40;99.90
3792;DHT22;1911;53.768;11.474;2023-10-19T09:38:15;8.60;99.90
3792;DHT22;1911;53.768;11.474;2023-10-19T09:40:41;8.50;99.90
3792;DHT22;1911;53.768;11.474;2023-10-19T09:43:15;8.50;99.90
3792;DHT22;1911;53.768;11.474;2023-10-19T09:45:42;8.50;99.90
3792;DHT22;1911;53.768;11.474;2023-10-19T09:48:16;8.50;99.90
3792;DHT22;1911;53.768;11.474;2023-10-19T09:50:50;8.50;99.90
3792;DHT22;1911;53.768;11.474;2023-10-19T09:53:20;8.50;99.90
3792;DHT22;1911;53.768;11.474;2023-10-19T09:55:48;8.40;99.90
3792;DHT22;1911;53.768;11.474;2023-10-19T09:58:21;8.40;99.90
3792;DHT22;1911;53.768;11.474;2023-10-19T10:00:48;8.40;99.90
3792;DHT22;1911;53.768;11.474;2023-10-19T10:06:08;8.40;99.90
3792;DHT22;1911;53.768;11.474;2023-10-19T10:08:35;8.40;99.90
3792;DHT22;1911;53.768;11.474;2023-10-19T10:11:23;8.40;99.90
3792;DHT22;1911;53.768;11.474;2023-10-19T10:13:50;8.40;99.90
3792;DHT22;1911;53.768;11.474;2023-10-19T10:16:22;8.40;99.90
3792;DHT22;1911;53.768;11.474;2023-10-19T10:18:49;8.30;99.90
3792;DHT22;1911;53.768;11.474;2023-10-19T10:21:20;8.20;99.90
3792;DHT22;1911;53.768;11.474;2023-10-19T10:23:54;8.30;99.90
3792;DHT22;1911;53.768;11.474;2023-10-19T10:26:22;8.30;99.90
3792;DHT22;1911;53.768;11.474;2023-10-19T10:29:21;8.30;99.90
3792;DHT22;1911;53.768;11.474;2023-10-19T10:31:50;8.30;99.90
3792;DHT22;1911;53.768;11.474;2023-10-19T10:34:42;8.30;99.90
3792;DHT22;1911;53.768;11.474;2023-10-19T10:37:09;8.30;99.90
3792;DHT22;1911;53.768;11.474;2023-10-19T10:39:37;8.20;99.90
3792;DHT22;1911;53.768;11.474;2023-10-19T10:42:04;8.10;99.90
3792;DHT22;1911;53.768;11.474;2023-10-19T10:44:36;8.10;99.90
3792;DHT22;1911;53.768;11.474;2023-10-19T10:47:12;8.20;99.90
3792;DHT22;1911;53.768;11.474;2023-10-19T10:49:58;8.10;99.90
3792;DHT22;1911;53.768;11.474;2023-10-19T10:52:29;8.10;99.90
3792;DHT22;1911;53.768;11.474;2023-10-19T10:55:14;8.10;99.90
3792;DHT22;1911;53.768;11.474;2023-10-19T10:57:41;8.20;99.90
3792;DHT22;1911;53.768;11.474;2023-10-19T11:02:41;8.30;99.90
3792;DHT22;1911;53.768;11.474;2023-10-19T11:05:13;8.30;99.90
3792;DHT22;1911;53.768;11.474;2023-10-19T11:08:03;8.30;99.90
3792;DHT22;1911;53.768;11.474;2023-10-19T11:10:30;8.40;99.90
3792;DHT22;1911;53.768;11.474;2023-10-19T11:13:06;8.40;99.90
3792;DHT22;1911;53.768;11.474;2023-10-19T11:15:33;8.50;99.90
3792;DHT22;1911;53.768;11.474;2023-10-19T11:17:59;8.50;99.90
3792;DHT22;1911;53.768;11.474;2023-10-19T11:20:25;8.50;99.90
3792;DHT22;1911;53.768;11.474;2023-10-19T11:22:53;8.60;99.90
3792;DHT22;1911;53.768;11.474;2023-10-19T11:25:25;8.60;99.90
3792;DHT22;1911;53.768;11.474;2023-10-19T11:27:56;8.60;99.90
3792;DHT22;1911;53.768;11.474;2023-10-19T11:30:24;8.60;99.90
3792;DHT22;1911;53.768;11.474;2023-10-19T11:32:50;8.70;99.90
3792;DHT22;1911;53.768;11.474;2023-10-19T11:35:19;8.70;99.90
3792;DHT22;1911;53.768;11.474;2023-10-19T11:37:52;8.80;99.90
3792;DHT22;1911;53.768;11.474;2023-10-19T11:40:22;8.80;99.90
3792;DHT22;1911;53.768;11.474;2023-10-19T11:42:49;8.80;99.90
3792;DHT22;1911;53.768;11.474;2023-10-19T11:45:15;8.80;99.90
3792;DHT22;1911;53.768;11.474;2023-10-19T11:47:45;8.80;99.90
3792;DHT22;1911;53.768;11.474;2023-10-19T11:50:12;8.70;99.90
3792;DHT22;1911;53.768;11.474;2023-10-19T11:52:44;8.60;99.90
3792;DHT22;1911;53.768;11.474;2023-10-19T11:55:14;8.60;99.90
3792;DHT22;1911;53.768;11.474;2023-10-19T11:57:40;8.60;99.90
3792;DHT22;1911;53.768;11.474;2023-10-19T12:00:12;8.60;99.90
3792;DHT22;1911;53.768;11.474;2023-10-19T12:02:47;8.60;99.90
3792;DHT22;1911;53.768;11.474;2023-10-19T12:05:13;8.60;99.90
3792;DHT22;1911;53.768;11.474;2023-10-19T12:07:40;8.60;99.90
3792;DHT22;1911;53.768;11.474;2023-10-19T12:10:07;8.60;99.90
3792;DHT22;1911;53.768;11.474;2023-10-19T12:12:34;8.70;99.90
3792;DHT22;1911;53.768;11.474;2023-10-19T12:14:59;8.60;99.90
3792;DHT22;1911;53.768;11.474;2023-10-19T12:17:25;8.70;99.90
3792;DHT22;1911;53.768;11.474;2023-10-19T12:19:55;8.70;99.90
3792;DHT22;1911;53.768;11.474;2023-10-19T12:22:21;8.80;99.90
3792;DHT22;1911;53.768;11.474;2023-10-19T12:24:47;8.80;99.90
3792;DHT22;1911;53.768;11.474;2023-10-19T12:27:14;8.80;99.90
3792;DHT22;1911;53.768;11.474;2023-10-19T12:29:39;8.90;99.90
3792;DHT22;1911;53.768;11.474;2023-10-19T12:32:06;9.00;99.90
3792;DHT22;1911;53.768;11.474;2023-10-19T12:34:32;9.00;99.90
3792;DHT22;1911;53.768;11.474;2023-10-19T12:36:58;9.20;99.90
3792;DHT22;1911;53.768;11.474;2023-10-19T12:39:24;9.10;99.90
3792;DHT22;1911;53.768;11.474;2023-10-19T12:42:10;9.10;99.90
3792;DHT22;1911;53.768;11.474;2023-10-19T12:44:36;9.00;99.90
3792;DHT22;1911;53.768;11.474;2023-10-19T12:47:09;9.00;99.90
3792;DHT22;1911;53.768;11.474;2023-10-19T12:49:42;9.00;99.90
3792;DHT22;1911;53.768;11.474;2023-10-19T12:52:10;8.90;99.90
3792;DHT22;1911;53.768;11.474;2023-10-19T12:54:36;8.90;99.90
3792;DHT22;1911;53.768;11.474;2023-10-19T12:57:05;8.90;99.90
3792;DHT22;1911;53.768;11.474;2023-10-19T12:59:35;8.90;99.90
3792;DHT22;1911;53.768;11.474;2023-10-19T13:02:03;8.90;99.90
3792;DHT22;1911;53.768;11.474;2023-10-19T13:04:29;8.90;99.90
3792;DHT22;1911;53.768;11.474;2023-10-19T13:06:56;8.80;99.90
3792;DHT22;1911;53.768;11.474;2023-10-19T13:09:24;8.80;99.90
3792;DHT22;1911;53.768;11.474;2023-10-19T13:11:59;8.80;99.90
3792;DHT22;1911;53.768;11.474;2023-10-19T13:14:25;8.80;99.90
3792;DHT22;1911;53.768;11.474;2023-10-19T13:16:52;8.80;99.90
3792;DHT22;1911;53.768;11.474;2023-10-19T13:19:20;8.80;99.90
3792;DHT22;1911;53.768;11.474;2023-10-19T13:21:50;8.90;99.90
3792;DHT22;1911;53.768;11.474;2023-10-19T13:24:16;8.90;99.90
3792;DHT22;1911;53.768;11.474;2023-10-19T13:26:43;8.90;99.90
3792;DHT22;1911;53.768;11.474;2023-10-19T13:29:12;9.00;99.90
3792;DHT22;1911;53.768;11.474;2023-10-19T13:31:37;9.00;99.90
3792;DHT22;1911;53.768;11.474;2023-10-19T13:34:03;8.90;99.90
3792;DHT22;1911;53.768;11.474;2023-10-19T13:36:35;9.00;99.90
3792;DHT22;1911;53.768;11.474;2023-10-19T13:39:01;9.00;99.90
3792;DHT22;1911;53.768;11.474;2023-10-19T13:41:28;9.00;99.90
3792;DHT22;1911;53.768;11.474;2023-10-19T13:43:54;9.00;99.90
3792;DHT22;1911;53.768;11.474;2023-10-19T13:46:21;9.00;99.90
3792;DHT22;1911;53.768;11.474;2023-10-19T13:48:49;9.00;99.90
3792;DHT22;1911;53.768;11.474;2023-10-19T13:51:16;9.00;99.90
3792;DHT22;1911;53.768;11.474;2023-10-19T13:53:44;9.00;99.90
3792;DHT22;1911;53.768;11.474;2023-10-19T13:56:11;9.00;99.90
3792;DHT22;1911;53.768;11.474;2023-10-19T13:58:37;9.00;99.90
3792;DHT22;1911;53.768;11.474;2023-10-19T14:01:06;9.00;99.90
3792;DHT22;1911;53.768;11.474;2023-10-19T14:03:32;9.00;99.90
3792;DHT22;1911;53.768;11.474;2023-10-19T14:05:57;9.00;99.90
3792;DHT22;1911;53.768;11.474;2023-10-19T14:08:23;9.00;99.90
3792;DHT22;1911;53.768;11.474;2023-10-19T14:10:48;9.00;99.90
3792;DHT22;1911;53.768;11.474;2023-10-19T14:13:14;9.00;99.90
3792;DHT22;1911;53.768;11.474;2023-10-19T14:15:40;9.00;99.90
3792;DHT22;1911;53.768;11.474;2023-10-19T14:18:07;9.00;99.90
3792;DHT22;1911;53.768;11.474;2023-10-19T14:20:33;9.00;99.90
3792;DHT22;1911;53.768;11.474;2023-10-19T14:23:00;9.00;99.90
3792;DHT22;1911;53.768;11.474;2023-10-19T14:25:27;9.00;99.90
3792;DHT22;1911;53.768;11.474;2023-10-19T14:27:55;8.90;99.90
3792;DHT22;1911;53.768;11.474;2023-10-19T14:30:26;8.90;99.90
3792;DHT22;1911;53.768;11.474;2023-10-19T14:32:51;8.90;99.90
3792;DHT22;1911;53.768;11.474;2023-10-19T14:35:21;8.90;99.90
3792;DHT22;1911;53.768;11.474;2023-10-19T14:37:49;8.90;99.90
3792;DHT22;1911;53.768;11.474;2023-10-19T14:40:19;8.90;99.90
3792;DHT22;1911;53.768;11.474;2023-10-19T14:42:49;8.90;99.90
3792;DHT22;1911;53.768;11.474;2023-10-19T14:45:19;8.80;99.90
3792;DHT22;1911;53.768;11.474;2023-10-19T14:47:49;8.80;99.90
3792;DHT22;1911;53.768;11.474;2023-10-19T14:50:17;8.80;99.90
3792;DHT22;1911;53.768;11.474;2023-10-19T14:52:47;8.70;99.90
3792;DHT22;1911;53.768;11.474;2023-10-19T14:55:14;8.70;99.90
3792;DHT22;1911;53.768;11.474;2023-10-19T14:57:42;8.70;99.90
3792;DHT22;1911;53.768;11.474;2023-10-19T15:00:10;8.70;99.90
3792;DHT22;1911;53.768;11.474;2023-10-19T15:02:54;8.70;99.90
3792;DHT22;1911;53.768;11.474;2023-10-19T15:05:21;8.70;99.90
3792;DHT22;1911;53.768;11.474;2023-10-19T15:07:50;8.60;99.90
3792;DHT22;1911;53.768;11.474;2023-10-19T15:12:46;8.60;99.90
3792;DHT22;1911;53.768;11.474;2023-10-19T15:15:12;8.60;99.90
3792;DHT22;1911;53.768;11.474;2023-10-19T15:17:43;8.60;99.90
3792;DHT22;1911;53.768;11.474;2023-10-19T15:20:11;8.60;99.90
3792;DHT22;1911;53.768;11.474;2023-10-19T15:22:40;8.60;99.90
3792;DHT22;1911;53.768;11.474;2023-10-19T15:25:07;8.50;99.90
3792;DHT22;1911;53.768;11.474;2023-10-19T15:27:43;8.50;99.90
3792;DHT22;1911;53.768;11.474;2023-10-19T15:30:11;8.50;99.90
3792;DHT22;1911;53.768;11.474;2023-10-19T15:32:37;8.40;99.90
3792;DHT22;1911;53.768;11.474;2023-10-19T15:35:03;8.40;99.90
3792;DHT22;1911;53.768;11.474;2023-10-19T15:37:29;8.40;99.90
3792;DHT22;1911;53.768;11.474;2023-10-19T15:39:55;8.40;99.90
3792;DHT22;1911;53.768;11.474;2023-10-19T15:42:21;8.40;99.90
3792;DHT22;1911;53.768;11.474;2023-10-19T15:44:50;8.40;99.90
3792;DHT22;1911;53.768;11.474;2023-10-19T15:47:16;8.30;99.90
3792;DHT22;1911;53.768;11.474;2023-10-19T15:49:48;8.30;99.90
3792;DHT22;1911;53.768;11.474;2023-10-19T15:52:18;8.30;99.90
3792;DHT22;1911;53.768;11.474;2023-10-19T15:54:47;8.30;99.90
3792;DHT22;1911;53.768;11.474;2023-10-19T15:57:13;8.30;99.90
3792;DHT22;1911;53.768;11.474;2023-10-19T15:59:41;8.30;99.90
3792;DHT22;1911;53.768;11.474;2023-10-19T16:02:08;8.20;99.90
3792;DHT22;1911;53.768;11.474;2023-10-19T16:04:36;8.20;99.90
3792;DHT22;1911;53.768;11.474;2023-10-19T16:07:02;8.20;99.90
3792;DHT22;1911;53.768;11.474;2023-10-19T16:09:27;8.20;99.90
3792;DHT22;1911;53.768;11.474;2023-10-19T16:11:53;8.20;99.90
3792;DHT22;1911;53.768;11.474;2023-10-19T16:14:18;8.10;99.90
3792;DHT22;1911;53.768;11.474;2023-10-19T16:16:48;8.10;99.90
3792;DHT22;1911;53.768;11.474;2023-10-19T16:19:16;8.10;99.90
3792;DHT22;1911;53.768;11.474;2023-10-19T16:21:44;8.10;99.90
3792;DHT22;1911;53.768;11.474;2023-10-19T16:24:12;8.10;99.90
3792;DHT22;1911;53.768;11.474;2023-10-19T16:26:38;8.20;99.90
3792;DHT22;1911;53.768;11.474;2023-10-19T16:29:07;8.10;99.90